Ada, MI

9:47 AM EDT on August 27, 2016 (GMT -0400)
Cascade | | Change Station

Elev 759 ft 42.94 °N, 85.50 °W | Updated 8 seconds ago

Heavy Thunderstorms and Rain
Heavy Thunderstorm Rain Mist
63.6 °F
Feels Like 63.6 °F
N
0.0
Wind Variable Wind from North
Gusts 2.0 mph

Today
High -- | Low -- °F
--% Chance of Precip.
Yesterday
High -- | Low -- °F
Precip. -- in
Pressure 30.18 in
Visibility 1.0 miles
Clouds Mostly Cloudy 3000 ft
Overcast 4100 ft
Dew Point 62 °F
Humidity 96%
Rainfall 0.42 in
Snow Depth Not available.
7:01 AM 8:24 PM
Waning Crescent, 24% visible
SPECI KGRR 271322Z 31007KT 1SM R26L/6000VP6000FT +TSRA BR BKN030CB OVC041 17/16 A3018 RMK AO2 VIS 1/2V1 1/2 OCNL LTGIC S-W TS S-W MOV NE P0041 T01720161
Pressure 30.18 in
Visibility 1.0 miles
Clouds Mostly Cloudy 3000 ft
Overcast 4100 ft
Dew Point 62 °F
Humidity 96%
Rainfall 0.42 in
Snow Depth Not available.
7:01 AM 8:24 PM
Waning Crescent, 24% visible
SPECI KGRR 271322Z 31007KT 1SM R26L/6000VP6000FT +TSRA BR BKN030CB OVC041 17/16 A3018 RMK AO2 VIS 1/2V1 1/2 OCNL LTGIC S-W TS S-W MOV NE P0041 T01720161

10-Day Weather Forecast

Almanac

Astronomy

Aug. 27, 2016 Rise Set
Actual Time
Civil Twilight
Nautical Twilight
Astronomical Twilight
Moon
Length of Visible Light
Length of Day
Tomorrow will be .
, % of the Moon is Illuminated

Today's Extremes

State Highs State Lows

Community

WunderPhotos

Upload Photos

1,935,339 photos uploaded!

WunderBlog® & News

Nearby

Air Quality

  Air Quality AQ Index Pollutant
Not available.

Snow Depth

Station Depth Elevation

Earthquake Activity

City Distance Mag. Time & Date
Minimum magnitude displayed is 2.5.

Coastal Water Temperatures

Place Temperature

Stations

Nearby Weather Stations

Station Location Temp. Windchill Dew Point Humidity Wind Precip. Elev Updated Type
                   

Watches & Warnings

There are currently no watches in effect.